sensor_id;sensor_type;location;lat;lon;timestamp;P1;durP1;ratioP1;P2;durP2;ratioP2
50631;SDS011;49583;45.590;-122.498;2024-03-23T00:57:43;2.40;;;2.20;;
50631;SDS011;49583;45.590;-122.498;2024-03-23T00:59:55;3.20;;;2.80;;
50631;SDS011;49583;45.590;-122.498;2024-03-23T01:02:07;3.30;;;2.90;;
50631;SDS011;49583;45.590;-122.498;2024-03-23T01:04:20;4.60;;;3.00;;
50631;SDS011;49583;45.590;-122.498;2024-03-23T01:06:33;9.10;;;3.60;;
50631;SDS011;49583;45.590;-122.498;2024-03-23T01:08:46;8.70;;;3.40;;
50631;SDS011;49583;45.590;-122.498;2024-03-23T01:10:58;7.60;;;3.40;;
50631;SDS011;49583;45.590;-122.498;2024-03-23T01:13:11;5.00;;;3.00;;
50631;SDS011;49583;45.590;-122.498;2024-03-23T01:15:28;7.60;;;3.20;;
50631;SDS011;49583;45.590;-122.498;2024-03-23T01:17:40;7.40;;;3.40;;
50631;SDS011;49583;45.590;-122.498;2024-03-23T01:19:53;5.90;;;4.00;;
50631;SDS011;49583;45.590;-122.498;2024-03-23T01:22:05;9.40;;;4.00;;
50631;SDS011;49583;45.590;-122.498;2024-03-23T01:24:18;5.10;;;3.20;;
50631;SDS011;49583;45.590;-122.498;2024-03-23T01:26:30;8.80;;;3.60;;
50631;SDS011;49583;45.590;-122.498;2024-03-23T01:28:42;4.90;;;3.50;;
50631;SDS011;49583;45.590;-122.498;2024-03-23T01:30:55;5.60;;;3.70;;
50631;SDS011;49583;45.590;-122.498;2024-03-23T01:33:07;4.80;;;3.70;;
50631;SDS011;49583;45.590;-122.498;2024-03-23T01:35:20;3.80;;;2.90;;
50631;SDS011;49583;45.590;-122.498;2024-03-23T01:37:32;7.70;;;3.10;;
50631;SDS011;49583;45.590;-122.498;2024-03-23T01:39:45;3.50;;;3.20;;
50631;SDS011;49583;45.590;-122.498;2024-03-23T01:41:58;7.00;;;3.40;;
50631;SDS011;49583;45.590;-122.498;2024-03-23T01:46:19;6.40;;;3.80;;
50631;SDS011;49583;45.590;-122.498;2024-03-23T01:48:32;6.20;;;3.60;;
50631;SDS011;49583;45.590;-122.498;2024-03-23T01:50:44;4.90;;;3.40;;
50631;SDS011;49583;45.590;-122.498;2024-03-23T01:52:56;4.80;;;4.00;;
50631;SDS011;49583;45.590;-122.498;2024-03-23T01:55:10;6.30;;;3.60;;
50631;SDS011;49583;45.590;-122.498;2024-03-23T01:57:22;7.50;;;3.50;;
50631;SDS011;49583;45.590;-122.498;2024-03-23T01:59:35;4.40;;;3.20;;
50631;SDS011;49583;45.590;-122.498;2024-03-23T02:01:49;7.30;;;3.80;;
50631;SDS011;49583;45.590;-122.498;2024-03-23T02:04:01;7.10;;;3.80;;
50631;SDS011;49583;45.590;-122.498;2024-03-23T02:06:14;6.10;;;3.80;;
50631;SDS011;49583;45.590;-122.498;2024-03-23T02:08:26;7.30;;;4.00;;
50631;SDS011;49583;45.590;-122.498;2024-03-23T02:10:39;7.10;;;3.80;;
50631;SDS011;49583;45.590;-122.498;2024-03-23T02:12:51;5.00;;;2.90;;
50631;SDS011;49583;45.590;-122.498;2024-03-23T02:17:13;7.70;;;3.60;;
50631;SDS011;49583;45.590;-122.498;2024-03-23T02:19:25;7.00;;;4.10;;
50631;SDS011;49583;45.590;-122.498;2024-03-23T02:21:38;5.80;;;4.10;;
50631;SDS011;49583;45.590;-122.498;2024-03-23T02:23:50;4.60;;;3.50;;
50631;SDS011;49583;45.590;-122.498;2024-03-23T02:26:03;5.00;;;2.50;;
50631;SDS011;49583;45.590;-122.498;2024-03-23T02:28:15;6.00;;;3.50;;
50631;SDS011;49583;45.590;-122.498;2024-03-23T02:30:27;10.80;;;4.70;;
50631;SDS011;49583;45.590;-122.498;2024-03-23T02:32:39;7.00;;;4.50;;
50631;SDS011;49583;45.590;-122.498;2024-03-23T02:34:53;5.80;;;4.10;;
50631;SDS011;49583;45.590;-122.498;2024-03-23T02:37:07;5.60;;;3.20;;
50631;SDS011;49583;45.590;-122.498;2024-03-23T02:39:22;5.70;;;3.30;;
50631;SDS011;49583;45.590;-122.498;2024-03-23T02:41:35;5.00;;;3.40;;
50631;SDS011;49583;45.590;-122.498;2024-03-23T02:43:48;9.80;;;3.80;;
50631;SDS011;49583;45.590;-122.498;2024-03-23T02:46:01;7.00;;;3.90;;
50631;SDS011;49583;45.590;-122.498;2024-03-23T02:48:15;10.70;;;3.80;;
50631;SDS011;49583;45.590;-122.498;2024-03-23T02:50:28;10.70;;;3.80;;
50631;SDS011;49583;45.590;-122.498;2024-03-23T02:52:41;9.00;;;4.70;;
50631;SDS011;49583;45.590;-122.498;2024-03-23T02:54:53;9.10;;;4.20;;
50631;SDS011;49583;45.590;-122.498;2024-03-23T02:57:05;11.40;;;4.50;;
50631;SDS011;49583;45.590;-122.498;2024-03-23T02:59:17;7.00;;;4.00;;
50631;SDS011;49583;45.590;-122.498;2024-03-23T03:01:30;5.90;;;4.40;;
50631;SDS011;49583;45.590;-122.498;2024-03-23T03:03:42;7.30;;;3.70;;
50631;SDS011;49583;45.590;-122.498;2024-03-23T03:05:57;8.30;;;4.10;;
50631;SDS011;49583;45.590;-122.498;2024-03-23T03:08:09;8.30;;;3.10;;
50631;SDS011;49583;45.590;-122.498;2024-03-23T03:10:21;7.40;;;3.50;;
50631;SDS011;49583;45.590;-122.498;2024-03-23T03:12:33;7.80;;;3.30;;
50631;SDS011;49583;45.590;-122.498;2024-03-23T03:14:46;8.60;;;3.80;;
50631;SDS011;49583;45.590;-122.498;2024-03-23T03:16:58;12.80;;;3.70;;
50631;SDS011;49583;45.590;-122.498;2024-03-23T03:19:11;7.30;;;3.10;;
50631;SDS011;49583;45.590;-122.498;2024-03-23T03:21:25;6.50;;;2.30;;
50631;SDS011;49583;45.590;-122.498;2024-03-23T03:25:46;4.60;;;2.50;;
50631;SDS011;49583;45.590;-122.498;2024-03-23T03:27:58;3.60;;;2.60;;
50631;SDS011;49583;45.590;-122.498;2024-03-23T03:30:12;2.60;;;2.40;;
50631;SDS011;49583;45.590;-122.498;2024-03-23T03:32:25;4.40;;;2.90;;
50631;SDS011;49583;45.590;-122.498;2024-03-23T03:34:38;4.70;;;2.80;;
50631;SDS011;49583;45.590;-122.498;2024-03-23T03:36:51;2.40;;;2.20;;
50631;SDS011;49583;45.590;-122.498;2024-03-23T03:41:13;5.80;;;3.10;;
50631;SDS011;49583;45.590;-122.498;2024-03-23T03:43:26;3.10;;;2.40;;
50631;SDS011;49583;45.590;-122.498;2024-03-23T03:45:39;4.50;;;2.90;;
50631;SDS011;49583;45.590;-122.498;2024-03-23T03:47:52;3.20;;;2.70;;
50631;SDS011;49583;45.590;-122.498;2024-03-23T03:50:04;4.10;;;3.10;;
50631;SDS011;49583;45.590;-122.498;2024-03-23T03:52:17;3.10;;;2.60;;
50631;SDS011;49583;45.590;-122.498;2024-03-23T03:54:29;10.20;;;3.20;;
50631;SDS011;49583;45.590;-122.498;2024-03-23T03:56:42;3.60;;;3.10;;
50631;SDS011;49583;45.590;-122.498;2024-03-23T03:58:54;6.80;;;3.40;;
50631;SDS011;49583;45.590;-122.498;2024-03-23T04:03:15;7.70;;;3.20;;
50631;SDS011;49583;45.590;-122.498;2024-03-23T04:05:27;8.00;;;3.40;;
50631;SDS011;49583;45.590;-122.498;2024-03-23T04:07:42;4.50;;;3.10;;
50631;SDS011;49583;45.590;-122.498;2024-03-23T04:09:54;4.10;;;3.10;;
50631;SDS011;49583;45.590;-122.498;2024-03-23T04:12:07;5.10;;;3.10;;
50631;SDS011;49583;45.590;-122.498;2024-03-23T04:14:20;5.10;;;3.80;;
50631;SDS011;49583;45.590;-122.498;2024-03-23T04:16:33;6.50;;;3.20;;
50631;SDS011;49583;45.590;-122.498;2024-03-23T04:18:45;9.10;;;3.80;;
50631;SDS011;49583;45.590;-122.498;2024-03-23T04:20:58;4.70;;;3.20;;
50631;SDS011;49583;45.590;-122.498;2024-03-23T04:25:20;6.90;;;3.60;;
50631;SDS011;49583;45.590;-122.498;2024-03-23T04:27:32;7.30;;;4.10;;
50631;SDS011;49583;45.590;-122.498;2024-03-23T04:29:46;5.60;;;3.10;;
50631;SDS011;49583;45.590;-122.498;2024-03-23T04:31:59;4.60;;;4.10;;
50631;SDS011;49583;45.590;-122.498;2024-03-23T04:34:12;8.00;;;4.70;;
50631;SDS011;49583;45.590;-122.498;2024-03-23T04:36:24;3.80;;;3.10;;
50631;SDS011;49583;45.590;-122.498;2024-03-23T04:40:45;5.70;;;2.90;;
50631;SDS011;49583;45.590;-122.498;2024-03-23T04:43:05;3.20;;;2.30;;
50631;SDS011;49583;45.590;-122.498;2024-03-23T04:45:18;4.90;;;2.40;;
50631;SDS011;49583;45.590;-122.498;2024-03-23T04:47:30;7.00;;;3.10;;
50631;SDS011;49583;45.590;-122.498;2024-03-23T04:49:44;4.80;;;2.50;;
50631;SDS011;49583;45.590;-122.498;2024-03-23T04:51:56;4.50;;;2.80;;
50631;SDS011;49583;45.590;-122.498;2024-03-23T04:54:09;5.60;;;3.50;;
50631;SDS011;49583;45.590;-122.498;2024-03-23T04:58:31;4.40;;;2.50;;
50631;SDS011;49583;45.590;-122.498;2024-03-23T05:00:45;5.60;;;2.40;;
50631;SDS011;49583;45.590;-122.498;2024-03-23T05:02:57;11.40;;;3.40;;
50631;SDS011;49583;45.590;-122.498;2024-03-23T05:07:19;3.80;;;2.10;;
50631;SDS011;49583;45.590;-122.498;2024-03-23T05:09:32;4.00;;;2.20;;
50631;SDS011;49583;45.590;-122.498;2024-03-23T05:13:53;5.30;;;1.90;;
50631;SDS011;49583;45.590;-122.498;2024-03-23T05:16:06;3.40;;;2.40;;
50631;SDS011;49583;45.590;-122.498;2024-03-23T05:18:18;5.00;;;2.20;;
50631;SDS011;49583;45.590;-122.498;2024-03-23T05:20:33;4.20;;;2.80;;
50631;SDS011;49583;45.590;-122.498;2024-03-23T05:22:46;5.50;;;2.30;;
50631;SDS011;49583;45.590;-122.498;2024-03-23T05:24:58;4.10;;;2.40;;
50631;SDS011;49583;45.590;-122.498;2024-03-23T05:27:12;2.80;;;2.10;;
50631;SDS011;49583;45.590;-122.498;2024-03-23T05:29:24;3.70;;;2.00;;
50631;SDS011;49583;45.590;-122.498;2024-03-23T05:33:47;2.80;;;1.90;;
50631;SDS011;49583;45.590;-122.498;2024-03-23T05:36:00;5.70;;;1.80;;
50631;SDS011;49583;45.590;-122.498;2024-03-23T05:38:13;2.20;;;1.70;;
50631;SDS011;49583;45.590;-122.498;2024-03-23T05:40:26;3.50;;;1.90;;
50631;SDS011;49583;45.590;-122.498;2024-03-23T05:42:38;5.40;;;2.00;;
50631;SDS011;49583;45.590;-122.498;2024-03-23T05:44:51;2.20;;;1.60;;
50631;SDS011;49583;45.590;-122.498;2024-03-23T05:47:05;2.70;;;1.70;;
50631;SDS011;49583;45.590;-122.498;2024-03-23T05:49:17;4.00;;;1.60;;
50631;SDS011;49583;45.590;-122.498;2024-03-23T05:51:30;4.10;;;1.70;;
50631;SDS011;49583;45.590;-122.498;2024-03-23T05:53:43;2.70;;;1.90;;
50631;SDS011;49583;45.590;-122.498;2024-03-23T05:56:00;4.10;;;1.90;;
50631;SDS011;49583;45.590;-122.498;2024-03-23T05:58:14;2.70;;;1.80;;
50631;SDS011;49583;45.590;-122.498;2024-03-23T06:00:27;2.10;;;1.70;;
50631;SDS011;49583;45.590;-122.498;2024-03-23T06:02:39;1.80;;;1.50;;
50631;SDS011;49583;45.590;-122.498;2024-03-23T06:04:52;2.00;;;1.80;;
50631;SDS011;49583;45.590;-122.498;2024-03-23T06:07:04;3.00;;;2.20;;
50631;SDS011;49583;45.590;-122.498;2024-03-23T06:09:21;2.90;;;1.70;;
50631;SDS011;49583;45.590;-122.498;2024-03-23T06:11:33;3.70;;;1.70;;
50631;SDS011;49583;45.590;-122.498;2024-03-23T06:13:45;3.10;;;2.00;;
50631;SDS011;49583;45.590;-122.498;2024-03-23T06:16:00;3.70;;;2.60;;
50631;SDS011;49583;45.590;-122.498;2024-03-23T06:18:13;5.30;;;2.10;;
50631;SDS011;49583;45.590;-122.498;2024-03-23T06:20:25;4.70;;;3.00;;
50631;SDS011;49583;45.590;-122.498;2024-03-23T06:22:38;3.70;;;2.70;;
50631;SDS011;49583;45.590;-122.498;2024-03-23T06:24:50;3.20;;;2.60;;
50631;SDS011;49583;45.590;-122.498;2024-03-23T06:27:04;3.50;;;2.90;;
50631;SDS011;49583;45.590;-122.498;2024-03-23T06:29:16;3.10;;;2.50;;
50631;SDS011;49583;45.590;-122.498;2024-03-23T06:31:29;3.10;;;2.60;;
50631;SDS011;49583;45.590;-122.498;2024-03-23T06:33:41;3.50;;;2.70;;
50631;SDS011;49583;45.590;-122.498;2024-03-23T06:35:53;3.50;;;2.90;;
50631;SDS011;49583;45.590;-122.498;2024-03-23T06:38:06;3.30;;;2.60;;
50631;SDS011;49583;45.590;-122.498;2024-03-23T06:40:18;6.40;;;2.40;;
50631;SDS011;49583;45.590;-122.498;2024-03-23T06:44:40;3.60;;;2.10;;
50631;SDS011;49583;45.590;-122.498;2024-03-23T06:46:56;3.20;;;2.10;;
50631;SDS011;49583;45.590;-122.498;2024-03-23T06:49:10;3.00;;;2.40;;
50631;SDS011;49583;45.590;-122.498;2024-03-23T06:51:26;5.30;;;2.20;;
50631;SDS011;49583;45.590;-122.498;2024-03-23T06:53:38;2.80;;;2.30;;
50631;SDS011;49583;45.590;-122.498;2024-03-23T06:55:52;2.80;;;2.30;;
50631;SDS011;49583;45.590;-122.498;2024-03-23T06:58:04;2.20;;;1.70;;
50631;SDS011;49583;45.590;-122.498;2024-03-23T07:00:17;2.70;;;1.90;;
50631;SDS011;49583;45.590;-122.498;2024-03-23T07:02:30;2.90;;;1.90;;
50631;SDS011;49583;45.590;-122.498;2024-03-23T07:04:42;4.20;;;2.10;;
50631;SDS011;49583;45.590;-122.498;2024-03-23T07:06:54;2.20;;;2.00;;
50631;SDS011;49583;45.590;-122.498;2024-03-23T07:09:06;2.40;;;2.00;;
50631;SDS011;49583;45.590;-122.498;2024-03-23T07:11:20;2.80;;;2.40;;
50631;SDS011;49583;45.590;-122.498;2024-03-23T07:13:33;2.00;;;1.50;;
50631;SDS011;49583;45.590;-122.498;2024-03-23T07:15:49;2.20;;;2.00;;
50631;SDS011;49583;45.590;-122.498;2024-03-23T07:18:03;2.90;;;2.00;;
50631;SDS011;49583;45.590;-122.498;2024-03-23T07:20:15;2.60;;;2.30;;
50631;SDS011;49583;45.590;-122.498;2024-03-23T07:22:28;2.90;;;2.20;;
50631;SDS011;49583;45.590;-122.498;2024-03-23T07:24:40;3.90;;;1.80;;
50631;SDS011;49583;45.590;-122.498;2024-03-23T07:26:54;3.80;;;1.90;;
50631;SDS011;49583;45.590;-122.498;2024-03-23T07:29:06;5.60;;;2.20;;
50631;SDS011;49583;45.590;-122.498;2024-03-23T07:31:19;2.80;;;2.00;;
50631;SDS011;49583;45.590;-122.498;2024-03-23T07:33:32;4.00;;;2.00;;
50631;SDS011;49583;45.590;-122.498;2024-03-23T07:35:46;2.10;;;2.00;;
50631;SDS011;49583;45.590;-122.498;2024-03-23T07:37:58;3.20;;;1.90;;
50631;SDS011;49583;45.590;-122.498;2024-03-23T07:40:14;5.20;;;1.80;;
50631;SDS011;49583;45.590;-122.498;2024-03-23T07:42:26;2.60;;;1.90;;
50631;SDS011;49583;45.590;-122.498;2024-03-23T07:44:39;3.60;;;1.80;;
50631;SDS011;49583;45.590;-122.498;2024-03-23T07:46:51;3.90;;;1.90;;
50631;SDS011;49583;45.590;-122.498;2024-03-23T07:51:15;2.20;;;2.00;;
50631;SDS011;49583;45.590;-122.498;2024-03-23T07:53:27;2.90;;;1.80;;
50631;SDS011;49583;45.590;-122.498;2024-03-23T07:55:42;3.70;;;2.30;;
50631;SDS011;49583;45.590;-122.498;2024-03-23T07:58:05;3.40;;;1.80;;
50631;SDS011;49583;45.590;-122.498;2024-03-23T08:00:17;2.20;;;2.00;;
50631;SDS011;49583;45.590;-122.498;2024-03-23T08:02:30;3.30;;;2.10;;
50631;SDS011;49583;45.590;-122.498;2024-03-23T08:06:52;2.60;;;1.90;;
50631;SDS011;49583;45.590;-122.498;2024-03-23T08:09:04;2.60;;;2.00;;
50631;SDS011;49583;45.590;-122.498;2024-03-23T08:11:17;2.70;;;2.40;;
50631;SDS011;49583;45.590;-122.498;2024-03-23T08:13:30;3.40;;;2.00;;
50631;SDS011;49583;45.590;-122.498;2024-03-23T08:15:42;2.80;;;2.20;;
50631;SDS011;49583;45.590;-122.498;2024-03-23T08:17:54;3.30;;;1.80;;
50631;SDS011;49583;45.590;-122.498;2024-03-23T08:20:10;2.90;;;2.10;;
50631;SDS011;49583;45.590;-122.498;2024-03-23T08:22:23;2.60;;;2.40;;
50631;SDS011;49583;45.590;-122.498;2024-03-23T08:24:36;4.90;;;2.10;;
50631;SDS011;49583;45.590;-122.498;2024-03-23T08:26:48;3.10;;;2.00;;
50631;SDS011;49583;45.590;-122.498;2024-03-23T08:29:01;3.90;;;2.10;;
50631;SDS011;49583;45.590;-122.498;2024-03-23T08:31:14;2.90;;;2.30;;
50631;SDS011;49583;45.590;-122.498;2024-03-23T08:33:26;2.20;;;1.90;;
50631;SDS011;49583;45.590;-122.498;2024-03-23T08:35:40;3.10;;;2.40;;
50631;SDS011;49583;45.590;-122.498;2024-03-23T08:38:01;3.50;;;2.00;;
50631;SDS011;49583;45.590;-122.498;2024-03-23T08:40:14;2.30;;;2.10;;
50631;SDS011;49583;45.590;-122.498;2024-03-23T08:42:26;3.50;;;2.70;;
50631;SDS011;49583;45.590;-122.498;2024-03-23T08:44:39;2.40;;;2.20;;
50631;SDS011;49583;45.590;-122.498;2024-03-23T08:46:55;2.40;;;2.00;;
50631;SDS011;49583;45.590;-122.498;2024-03-23T08:49:08;2.50;;;2.00;;
50631;SDS011;49583;45.590;-122.498;2024-03-23T08:51:21;2.70;;;2.30;;
50631;SDS011;49583;45.590;-122.498;2024-03-23T08:53:34;2.00;;;1.70;;
50631;SDS011;49583;45.590;-122.498;2024-03-23T08:55:54;2.60;;;1.90;;
50631;SDS011;49583;45.590;-122.498;2024-03-23T08:58:07;7.50;;;1.80;;
50631;SDS011;49583;45.590;-122.498;2024-03-23T09:00:20;3.90;;;1.70;;
50631;SDS011;49583;45.590;-122.498;2024-03-23T09:02:33;2.30;;;1.70;;
50631;SDS011;49583;45.590;-122.498;2024-03-23T09:06:55;1.40;;;0.90;;
50631;SDS011;49583;45.590;-122.498;2024-03-23T09:09:07;3.10;;;2.10;;
50631;SDS011;49583;45.590;-122.498;2024-03-23T09:11:20;3.00;;;1.70;;
50631;SDS011;49583;45.590;-122.498;2024-03-23T09:13:32;2.40;;;1.90;;
50631;SDS011;49583;45.590;-122.498;2024-03-23T09:15:47;4.00;;;2.10;;
50631;SDS011;49583;45.590;-122.498;2024-03-23T09:18:04;1.70;;;1.60;;
50631;SDS011;49583;45.590;-122.498;2024-03-23T09:20:16;1.90;;;1.70;;
50631;SDS011;49583;45.590;-122.498;2024-03-23T09:22:28;2.40;;;2.10;;
50631;SDS011;49583;45.590;-122.498;2024-03-23T09:24:41;1.90;;;1.70;;
50631;SDS011;49583;45.590;-122.498;2024-03-23T09:26:53;3.30;;;2.00;;
50631;SDS011;49583;45.590;-122.498;2024-03-23T09:29:05;2.00;;;1.80;;
50631;SDS011;49583;45.590;-122.498;2024-03-23T09:31:18;2.00;;;1.70;;
50631;SDS011;49583;45.590;-122.498;2024-03-23T09:33:30;2.10;;;1.00;;
50631;SDS011;49583;45.590;-122.498;2024-03-23T09:35:43;1.90;;;1.50;;
50631;SDS011;49583;45.590;-122.498;2024-03-23T09:37:56;1.40;;;1.30;;
50631;SDS011;49583;45.590;-122.498;2024-03-23T09:40:09;1.40;;;1.00;;
50631;SDS011;49583;45.590;-122.498;2024-03-23T09:42:21;1.00;;;1.00;;
50631;SDS011;49583;45.590;-122.498;2024-03-23T09:44:33;0.80;;;0.80;;
50631;SDS011;49583;45.590;-122.498;2024-03-23T09:46:46;0.70;;;0.60;;
50631;SDS011;49583;45.590;-122.498;2024-03-23T09:49:00;0.90;;;0.80;;
50631;SDS011;49583;45.590;-122.498;2024-03-23T09:51:12;3.30;;;0.90;;
50631;SDS011;49583;45.590;-122.498;2024-03-23T09:53:24;5.80;;;1.10;;
50631;SDS011;49583;45.590;-122.498;2024-03-23T09:55:37;1.40;;;1.20;;
50631;SDS011;49583;45.590;-122.498;2024-03-23T09:57:50;2.50;;;1.20;;
50631;SDS011;49583;45.590;-122.498;2024-03-23T10:00:02;1.90;;;1.10;;
50631;SDS011;49583;45.590;-122.498;2024-03-23T10:02:17;1.50;;;1.00;;
50631;SDS011;49583;45.590;-122.498;2024-03-23T10:04:40;1.10;;;1.00;;
50631;SDS011;49583;45.590;-122.498;2024-03-23T10:09:03;2.20;;;0.80;;
50631;SDS011;49583;45.590;-122.498;2024-03-23T10:11:29;1.60;;;0.90;;
50631;SDS011;49583;45.590;-122.498;2024-03-23T10:13:40;0.90;;;0.80;;
50631;SDS011;49583;45.590;-122.498;2024-03-23T10:15:57;1.50;;;0.80;;
50631;SDS011;49583;45.590;-122.498;2024-03-23T10:18:17;1.00;;;0.80;;
50631;SDS011;49583;45.590;-122.498;2024-03-23T10:20:30;1.70;;;0.80;;
50631;SDS011;49583;45.590;-122.498;2024-03-23T10:22:43;1.00;;;0.60;;
50631;SDS011;49583;45.590;-122.498;2024-03-23T10:24:55;0.70;;;0.60;;
50631;SDS011;49583;45.590;-122.498;2024-03-23T10:27:19;2.30;;;0.80;;
50631;SDS011;49583;45.590;-122.498;2024-03-23T10:29:34;0.60;;;0.60;;
50631;SDS011;49583;45.590;-122.498;2024-03-23T10:33:57;1.40;;;0.50;;
50631;SDS011;49583;45.590;-122.498;2024-03-23T10:36:09;0.60;;;0.60;;
50631;SDS011;49583;45.590;-122.498;2024-03-23T10:38:22;0.90;;;0.60;;
50631;SDS011;49583;45.590;-122.498;2024-03-23T10:40:35;0.80;;;0.50;;
50631;SDS011;49583;45.590;-122.498;2024-03-23T10:42:49;0.50;;;0.50;;
50631;SDS011;49583;45.590;-122.498;2024-03-23T10:45:02;0.60;;;0.60;;
50631;SDS011;49583;45.590;-122.498;2024-03-23T10:47:18;0.90;;;0.50;;
50631;SDS011;49583;45.590;-122.498;2024-03-23T10:49:34;1.70;;;0.40;;
50631;SDS011;49583;45.590;-122.498;2024-03-23T10:51:50;1.30;;;0.60;;
50631;SDS011;49583;45.590;-122.498;2024-03-23T10:54:04;1.10;;;0.50;;
50631;SDS011;49583;45.590;-122.498;2024-03-23T10:56:23;1.20;;;0.50;;
50631;SDS011;49583;45.590;-122.498;2024-03-23T10:58:44;0.50;;;0.50;;
50631;SDS011;49583;45.590;-122.498;2024-03-23T11:01:17;0.70;;;0.50;;
50631;SDS011;49583;45.590;-122.498;2024-03-23T11:03:33;2.80;;;0.70;;
50631;SDS011;49583;45.590;-122.498;2024-03-23T11:05:49;0.50;;;0.50;;
50631;SDS011;49583;45.590;-122.498;2024-03-23T11:10:38;0.50;;;0.50;;
50631;SDS011;49583;45.590;-122.498;2024-03-23T11:13:20;0.60;;;0.60;;
50631;SDS011;49583;45.590;-122.498;2024-03-23T11:15:33;0.90;;;0.60;;
50631;SDS011;49583;45.590;-122.498;2024-03-23T11:20:32;0.60;;;0.60;;
50631;SDS011;49583;45.590;-122.498;2024-03-23T11:22:55;3.30;;;0.60;;
50631;SDS011;49583;45.590;-122.498;2024-03-23T11:25:18;4.10;;;1.00;;
50631;SDS011;49583;45.590;-122.498;2024-03-23T11:27:33;3.80;;;0.90;;
50631;SDS011;49583;45.590;-122.498;2024-03-23T11:30:16;4.10;;;0.70;;
50631;SDS011;49583;45.590;-122.498;2024-03-23T11:32:49;0.60;;;0.60;;
50631;SDS011;49583;45.590;-122.498;2024-03-23T11:35:03;1.00;;;0.70;;
50631;SDS011;49583;45.590;-122.498;2024-03-23T11:37:20;1.30;;;0.60;;
50631;SDS011;49583;45.590;-122.498;2024-03-23T11:39:36;1.20;;;0.70;;
50631;SDS011;49583;45.590;-122.498;2024-03-23T11:41:49;0.60;;;0.60;;
50631;SDS011;49583;45.590;-122.498;2024-03-23T11:44:16;3.50;;;0.70;;
50631;SDS011;49583;45.590;-122.498;2024-03-23T11:46:33;0.90;;;0.60;;
50631;SDS011;49583;45.590;-122.498;2024-03-23T11:48:51;1.60;;;0.60;;
50631;SDS011;49583;45.590;-122.498;2024-03-23T11:51:03;1.90;;;0.70;;
50631;SDS011;49583;45.590;-122.498;2024-03-23T11:53:20;1.70;;;0.70;;
50631;SDS011;49583;45.590;-122.498;2024-03-23T11:55:41;0.90;;;0.60;;
50631;SDS011;49583;45.590;-122.498;2024-03-23T11:57:56;1.40;;;0.80;;
50631;SDS011;49583;45.590;-122.498;2024-03-23T12:02:35;1.20;;;1.10;;
50631;SDS011;49583;45.590;-122.498;2024-03-23T12:04:47;1.90;;;0.70;;
50631;SDS011;49583;45.590;-122.498;2024-03-23T12:07:12;0.70;;;0.70;;
50631;SDS011;49583;45.590;-122.498;2024-03-23T12:09:26;1.00;;;0.70;;
50631;SDS011;49583;45.590;-122.498;2024-03-23T12:11:42;1.00;;;0.60;;
50631;SDS011;49583;45.590;-122.498;2024-03-23T12:13:54;0.90;;;0.80;;
50631;SDS011;49583;45.590;-122.498;2024-03-23T12:16:31;0.80;;;0.80;;
50631;SDS011;49583;45.590;-122.498;2024-03-23T12:18:47;1.00;;;0.70;;
50631;SDS011;49583;45.590;-122.498;2024-03-23T12:20:59;4.20;;;0.80;;
50631;SDS011;49583;45.590;-122.498;2024-03-23T12:23:12;2.40;;;0.80;;
50631;SDS011;49583;45.590;-122.498;2024-03-23T12:25:45;1.90;;;0.80;;
50631;SDS011;49583;45.590;-122.498;2024-03-23T12:28:04;1.30;;;0.70;;
50631;SDS011;49583;45.590;-122.498;2024-03-23T12:30:18;0.90;;;0.80;;
50631;SDS011;49583;45.590;-122.498;2024-03-23T12:32:40;1.10;;;0.70;;
50631;SDS011;49583;45.590;-122.498;2024-03-23T12:35:04;1.10;;;0.90;;
50631;SDS011;49583;45.590;-122.498;2024-03-23T12:37:19;1.40;;;1.00;;
50631;SDS011;49583;45.590;-122.498;2024-03-23T12:39:35;0.70;;;0.70;;
50631;SDS011;49583;45.590;-122.498;2024-03-23T12:41:57;1.90;;;0.90;;
50631;SDS011;49583;45.590;-122.498;2024-03-23T12:44:15;1.80;;;1.00;;
50631;SDS011;49583;45.590;-122.498;2024-03-23T12:46:32;1.30;;;0.80;;
50631;SDS011;49583;45.590;-122.498;2024-03-23T12:48:49;1.20;;;0.80;;
50631;SDS011;49583;45.590;-122.498;2024-03-23T12:51:12;1.20;;;0.80;;
50631;SDS011;49583;45.590;-122.498;2024-03-23T12:53:24;1.20;;;1.10;;
50631;SDS011;49583;45.590;-122.498;2024-03-23T12:55:40;2.10;;;0.80;;
50631;SDS011;49583;45.590;-122.498;2024-03-23T12:57:52;2.10;;;1.30;;
50631;SDS011;49583;45.590;-122.498;2024-03-23T13:00:07;2.40;;;1.10;;
50631;SDS011;49583;45.590;-122.498;2024-03-23T13:02:24;0.80;;;0.80;;
50631;SDS011;49583;45.590;-122.498;2024-03-23T13:04:39;1.20;;;0.60;;
50631;SDS011;49583;45.590;-122.498;2024-03-23T13:06:54;0.70;;;0.60;;
50631;SDS011;49583;45.590;-122.498;2024-03-23T13:09:10;0.90;;;0.80;;
50631;SDS011;49583;45.590;-122.498;2024-03-23T13:11:24;2.60;;;0.90;;
50631;SDS011;49583;45.590;-122.498;2024-03-23T13:13:37;1.30;;;0.70;;
50631;SDS011;49583;45.590;-122.498;2024-03-23T13:18:01;1.50;;;0.90;;
50631;SDS011;49583;45.590;-122.498;2024-03-23T13:20:18;0.60;;;0.60;;
50631;SDS011;49583;45.590;-122.498;2024-03-23T13:22:34;1.20;;;1.00;;
50631;SDS011;49583;45.590;-122.498;2024-03-23T13:24:51;1.70;;;0.90;;
50631;SDS011;49583;45.590;-122.498;2024-03-23T13:27:13;1.90;;;1.60;;
50631;SDS011;49583;45.590;-122.498;2024-03-23T13:29:26;1.50;;;0.80;;
50631;SDS011;49583;45.590;-122.498;2024-03-23T13:31:41;0.80;;;0.70;;
50631;SDS011;49583;45.590;-122.498;2024-03-23T13:34:15;0.80;;;0.80;;
50631;SDS011;49583;45.590;-122.498;2024-03-23T13:36:38;0.80;;;0.60;;
50631;SDS011;49583;45.590;-122.498;2024-03-23T13:38:50;1.40;;;0.60;;
50631;SDS011;49583;45.590;-122.498;2024-03-23T13:41:06;0.60;;;0.60;;
50631;SDS011;49583;45.590;-122.498;2024-03-23T13:45:41;1.20;;;0.70;;
50631;SDS011;49583;45.590;-122.498;2024-03-23T13:47:54;1.30;;;0.70;;
50631;SDS011;49583;45.590;-122.498;2024-03-23T13:50:07;2.10;;;0.70;;
50631;SDS011;49583;45.590;-122.498;2024-03-23T13:52:20;2.10;;;0.60;;
50631;SDS011;49583;45.590;-122.498;2024-03-23T13:54:37;3.10;;;0.70;;
50631;SDS011;49583;45.590;-122.498;2024-03-23T13:56:54;0.90;;;0.80;;
50631;SDS011;49583;45.590;-122.498;2024-03-23T13:59:07;0.90;;;0.80;;
50631;SDS011;49583;45.590;-122.498;2024-03-23T14:01:19;1.10;;;0.60;;
50631;SDS011;49583;45.590;-122.498;2024-03-23T14:03:31;0.90;;;0.70;;
50631;SDS011;49583;45.590;-122.498;2024-03-23T14:06:05;1.10;;;0.70;;
50631;SDS011;49583;45.590;-122.498;2024-03-23T14:08:18;3.10;;;0.80;;
50631;SDS011;49583;45.590;-122.498;2024-03-23T14:10:33;4.60;;;0.80;;
50631;SDS011;49583;45.590;-122.498;2024-03-23T14:12:49;1.30;;;0.70;;
50631;SDS011;49583;45.590;-122.498;2024-03-23T14:15:07;0.60;;;0.60;;
50631;SDS011;49583;45.590;-122.498;2024-03-23T14:17:19;0.90;;;0.60;;
50631;SDS011;49583;45.590;-122.498;2024-03-23T14:19:36;1.70;;;0.70;;
50631;SDS011;49583;45.590;-122.498;2024-03-23T14:21:49;2.40;;;0.90;;
50631;SDS011;49583;45.590;-122.498;2024-03-23T14:24:01;0.90;;;0.70;;
50631;SDS011;49583;45.590;-122.498;2024-03-23T14:26:19;0.80;;;0.60;;
50631;SDS011;49583;45.590;-122.498;2024-03-23T14:28:32;0.80;;;0.70;;
50631;SDS011;49583;45.590;-122.498;2024-03-23T14:31:05;1.50;;;0.90;;
50631;SDS011;49583;45.590;-122.498;2024-03-23T14:33:20;0.70;;;0.70;;
50631;SDS011;49583;45.590;-122.498;2024-03-23T14:35:33;1.60;;;0.70;;
50631;SDS011;49583;45.590;-122.498;2024-03-23T14:38:06;1.30;;;0.70;;
50631;SDS011;49583;45.590;-122.498;2024-03-23T14:40:22;1.00;;;0.80;;